SEATTLE-TACOMA INTL

KSEA (SEA)
Seattle, Washington
Towered

Vatsim Metar:
KSEA 201953Z VRB06G16KT 10SM FEW040 BKN140 21/M04 A2992 RMK AO2 SLP138 T02061039

No ATC Online

Traffic

Inbound:
Ident
Type
Name
ETA
Phase
DAL986
B738
Hassan Jehangir KBDL
20:35 Z
Cruse
OTA1021
A333
Jack Gero KSYI
20:41 Z
Cruse
NKS2119
A20N
Evan Van Havel KLAN
20:53 Z
Cruse
DAL9769
B77L
Zdenda Linhart LKPD
21:35 Z
Cruse
AFL15
CONC
Egor URRP
21:48 Z
Cruse
DLH490
A346
Laurenz M EDDM
01:20 Z
Descent

Outbound:
Ident
Type
Name
Destination
Phase